sensor_id;sensor_type;location;lat;lon;timestamp;pressure;altitude;pressure_sealevel;temperature;humidity
54314;BME280;50746;52.490;13.320;2023-02-18T00:01:00;100940.0;;;13.7;77.9
54314;BME280;50746;52.490;13.320;2023-02-18T00:01:59;100950.0;;;13.1;82.3
54314;BME280;50746;52.490;13.320;2023-02-18T00:02:59;100950.0;;;13.2;83.0
54314;BME280;50746;52.490;13.320;2023-02-18T00:03:59;100950.0;;;13.6;81.0
54314;BME280;50746;52.490;13.320;2023-02-18T00:04:59;100940.0;;;13.9;79.7
54314;BME280;50746;52.490;13.320;2023-02-18T00:05:59;100950.0;;;13.5;80.4
54314;BME280;50746;52.490;13.320;2023-02-18T00:06:59;100950.0;;;13.8;79.4
54314;BME280;50746;52.490;13.320;2023-02-18T00:07:59;100950.0;;;13.4;81.1
54314;BME280;50746;52.490;13.320;2023-02-18T00:09:59;100950.0;;;13.1;83.5
54314;BME280;50746;52.490;13.320;2023-02-18T00:11:59;100950.0;;;13.3;84.1
54314;BME280;50746;52.490;13.320;2023-02-18T00:12:59;100960.0;;;13.1;85.5
54314;BME280;50746;52.490;13.320;2023-02-18T00:14:01;100950.0;;;13.0;87.2
54314;BME280;50746;52.490;13.320;2023-02-18T00:14:59;100950.0;;;13.3;85.3
54314;BME280;50746;52.490;13.320;2023-02-18T00:16:00;100950.0;;;13.4;83.3
54314;BME280;50746;52.490;13.320;2023-02-18T00:19:01;100950.0;;;13.6;82.1
54314;BME280;50746;52.490;13.320;2023-02-18T00:19:59;100950.0;;;13.8;80.6
54314;BME280;50746;52.490;13.320;2023-02-18T00:20:59;100970.0;;;13.3;82.9
54314;BME280;50746;52.490;13.320;2023-02-18T00:21:59;100950.0;;;13.1;86.8
54314;BME280;50746;52.490;13.320;2023-02-18T00:22:59;100960.0;;;13.4;84.5
54314;BME280;50746;52.490;13.320;2023-02-18T00:23:59;100970.0;;;13.7;83.3
54314;BME280;50746;52.490;13.320;2023-02-18T00:24:59;100960.0;;;13.2;85.5
54314;BME280;50746;52.490;13.320;2023-02-18T00:26:00;100960.0;;;13.6;84.2
54314;BME280;50746;52.490;13.320;2023-02-18T00:26:59;100960.0;;;13.5;83.4
54314;BME280;50746;52.490;13.320;2023-02-18T00:28:59;100970.0;;;13.0;86.8
54314;BME280;50746;52.490;13.320;2023-02-18T00:29:59;100970.0;;;13.1;88.2
54314;BME280;50746;52.490;13.320;2023-02-18T00:30:59;100970.0;;;12.9;88.5
54314;BME280;50746;52.490;13.320;2023-02-18T00:32:59;100960.0;;;13.2;88.3
54314;BME280;50746;52.490;13.320;2023-02-18T00:34:59;100970.0;;;13.1;88.0
54314;BME280;50746;52.490;13.320;2023-02-18T00:36:01;100960.0;;;13.4;87.5
54314;BME280;50746;52.490;13.320;2023-02-18T00:36:59;100970.0;;;13.5;84.7
54314;BME280;50746;52.490;13.320;2023-02-18T00:37:59;100980.0;;;12.9;87.3
54314;BME280;50746;52.490;13.320;2023-02-18T00:39:00;100970.0;;;13.2;88.7
54314;BME280;50746;52.490;13.320;2023-02-18T00:39:59;100980.0;;;13.0;87.4
54314;BME280;50746;52.490;13.320;2023-02-18T00:41:00;100970.0;;;13.2;88.6
54314;BME280;50746;52.490;13.320;2023-02-18T00:41:59;100990.0;;;13.0;87.9
54314;BME280;50746;52.490;13.320;2023-02-18T00:42:59;100980.0;;;13.1;89.0
54314;BME280;50746;52.490;13.320;2023-02-18T00:44:59;100990.0;;;12.9;89.6
54314;BME280;50746;52.490;13.320;2023-02-18T00:45:59;100980.0;;;12.7;91.1
54314;BME280;50746;52.490;13.320;2023-02-18T00:46:59;100970.0;;;13.0;89.5
54314;BME280;50746;52.490;13.320;2023-02-18T00:47:59;100980.0;;;13.1;88.0
54314;BME280;50746;52.490;13.320;2023-02-18T00:49:59;100980.0;;;12.9;90.2
54314;BME280;50746;52.490;13.320;2023-02-18T00:50:59;100980.0;;;12.4;91.1
54314;BME280;50746;52.490;13.320;2023-02-18T00:51:59;100980.0;;;12.7;91.3
54314;BME280;50746;52.490;13.320;2023-02-18T00:52:59;100980.0;;;12.9;90.0
54314;BME280;50746;52.490;13.320;2023-02-18T00:53:59;100980.0;;;13.0;87.6
54314;BME280;50746;52.490;13.320;2023-02-18T00:54:59;100990.0;;;12.6;90.8
54314;BME280;50746;52.490;13.320;2023-02-18T00:55:59;100990.0;;;12.9;89.5
54314;BME280;50746;52.490;13.320;2023-02-18T00:56:59;100980.0;;;13.1;88.0
54314;BME280;50746;52.490;13.320;2023-02-18T00:57:59;100990.0;;;13.0;87.2
54314;BME280;50746;52.490;13.320;2023-02-18T00:58:59;101000.0;;;12.8;89.0
54314;BME280;50746;52.490;13.320;2023-02-18T00:59:59;100990.0;;;12.7;90.2
54314;BME280;50746;52.490;13.320;2023-02-18T01:01:59;100990.0;;;12.3;91.8
54314;BME280;50746;52.490;13.320;2023-02-18T01:02:59;100990.0;;;12.9;90.2
54314;BME280;50746;52.490;13.320;2023-02-18T01:03:59;100990.0;;;12.8;89.1
54314;BME280;50746;52.490;13.320;2023-02-18T01:04:59;100990.0;;;12.7;89.5
54314;BME280;50746;52.490;13.320;2023-02-18T01:05:59;100990.0;;;12.8;89.1
54314;BME280;50746;52.490;13.320;2023-02-18T01:06:59;100990.0;;;12.3;90.2
54314;BME280;50746;52.490;13.320;2023-02-18T01:07:59;100990.0;;;12.5;91.4
54314;BME280;50746;52.490;13.320;2023-02-18T01:09:59;100990.0;;;12.8;89.1
54314;BME280;50746;52.490;13.320;2023-02-18T01:11:59;100990.0;;;12.9;88.0
54314;BME280;50746;52.490;13.320;2023-02-18T01:13:59;100990.0;;;12.8;87.8
54314;BME280;50746;52.490;13.320;2023-02-18T01:14:59;100980.0;;;12.9;85.5
54314;BME280;50746;52.490;13.320;2023-02-18T01:15:59;100980.0;;;12.8;88.1
54314;BME280;50746;52.490;13.320;2023-02-18T01:16:59;100980.0;;;12.5;89.4
54314;BME280;50746;52.490;13.320;2023-02-18T01:17:59;100990.0;;;12.6;88.1
54314;BME280;50746;52.490;13.320;2023-02-18T01:18:59;100970.0;;;12.5;89.9
54314;BME280;50746;52.490;13.320;2023-02-18T01:19:59;100970.0;;;12.8;89.4
54314;BME280;50746;52.490;13.320;2023-02-18T01:20:59;100980.0;;;12.9;87.1
54314;BME280;50746;52.490;13.320;2023-02-18T01:21:59;100990.0;;;12.6;88.9
54314;BME280;50746;52.490;13.320;2023-02-18T01:22:59;100980.0;;;12.8;87.9
54314;BME280;50746;52.490;13.320;2023-02-18T01:23:59;100980.0;;;12.3;89.7
54314;BME280;50746;52.490;13.320;2023-02-18T01:24:59;100990.0;;;12.4;91.1
54314;BME280;50746;52.490;13.320;2023-02-18T01:25:59;100980.0;;;11.9;93.2
54314;BME280;50746;52.490;13.320;2023-02-18T01:26:59;101000.0;;;12.3;92.7
54314;BME280;50746;52.490;13.320;2023-02-18T01:27:59;100980.0;;;12.5;90.6
54314;BME280;50746;52.490;13.320;2023-02-18T01:28:59;100980.0;;;12.6;89.2
54314;BME280;50746;52.490;13.320;2023-02-18T01:29:59;100980.0;;;12.7;88.2
54314;BME280;50746;52.490;13.320;2023-02-18T01:31:03;100980.0;;;12.4;89.9
54314;BME280;50746;52.490;13.320;2023-02-18T01:31:59;100990.0;;;12.1;91.4
54314;BME280;50746;52.490;13.320;2023-02-18T01:32:59;100990.0;;;12.4;91.2
54314;BME280;50746;52.490;13.320;2023-02-18T01:33:59;100990.0;;;12.9;87.6
54314;BME280;50746;52.490;13.320;2023-02-18T01:35:59;100990.0;;;12.8;87.4
54314;BME280;50746;52.490;13.320;2023-02-18T01:37:59;100990.0;;;13.0;85.5
54314;BME280;50746;52.490;13.320;2023-02-18T01:38:59;100990.0;;;12.9;85.1
54314;BME280;50746;52.490;13.320;2023-02-18T01:39:59;100990.0;;;12.1;91.7
54314;BME280;50746;52.490;13.320;2023-02-18T01:40:59;100990.0;;;12.4;91.1
54314;BME280;50746;52.490;13.320;2023-02-18T01:41:59;100990.0;;;12.6;89.1
54314;BME280;50746;52.490;13.320;2023-02-18T01:42:59;100980.0;;;12.4;91.0
54314;BME280;50746;52.490;13.320;2023-02-18T01:44:09;100980.0;;;12.9;88.0
54314;BME280;50746;52.490;13.320;2023-02-18T01:46:05;100980.0;;;12.7;87.6
54314;BME280;50746;52.490;13.320;2023-02-18T01:46:59;101000.0;;;12.4;89.7
54314;BME280;50746;52.490;13.320;2023-02-18T01:49:00;100990.0;;;12.6;89.9
54314;BME280;50746;52.490;13.320;2023-02-18T01:49:59;100990.0;;;12.0;94.1
54314;BME280;50746;52.490;13.320;2023-02-18T01:52:02;100990.0;;;12.3;93.6
54314;BME280;50746;52.490;13.320;2023-02-18T01:52:59;100980.0;;;12.1;94.5
54314;BME280;50746;52.490;13.320;2023-02-18T01:54:02;100990.0;;;12.2;94.0
54314;BME280;50746;52.490;13.320;2023-02-18T01:54:59;100990.0;;;12.3;93.6
54314;BME280;50746;52.490;13.320;2023-02-18T01:56:01;101000.0;;;12.6;91.9
54314;BME280;50746;52.490;13.320;2023-02-18T01:57:01;101000.0;;;12.4;90.8
54314;BME280;50746;52.490;13.320;2023-02-18T01:57:59;100990.0;;;12.2;94.0
54314;BME280;50746;52.490;13.320;2023-02-18T01:59:01;100990.0;;;12.3;93.5
54314;BME280;50746;52.490;13.320;2023-02-18T02:00:03;100990.0;;;11.8;94.8
54314;BME280;50746;52.490;13.320;2023-02-18T02:01:59;100990.0;;;11.9;97.1
54314;BME280;50746;52.490;13.320;2023-02-18T02:02:59;100990.0;;;12.3;94.7
54314;BME280;50746;52.490;13.320;2023-02-18T02:03:59;100990.0;;;12.6;92.0
54314;BME280;50746;52.490;13.320;2023-02-18T02:04:59;100990.0;;;12.4;91.6
54314;BME280;50746;52.490;13.320;2023-02-18T02:05:59;100990.0;;;12.7;90.6
54314;BME280;50746;52.490;13.320;2023-02-18T02:06:59;100990.0;;;12.6;90.4
54314;BME280;50746;52.490;13.320;2023-02-18T02:08:00;100980.0;;;12.2;92.5
54314;BME280;50746;52.490;13.320;2023-02-18T02:12:07;100990.0;;;12.4;92.5
54314;BME280;50746;52.490;13.320;2023-02-18T02:13:02;100990.0;;;12.3;92.9
54314;BME280;50746;52.490;13.320;2023-02-18T02:15:05;100970.0;;;12.1;94.9
54314;BME280;50746;52.490;13.320;2023-02-18T02:16:05;100970.0;;;12.4;92.8
54314;BME280;50746;52.490;13.320;2023-02-18T02:17:03;100980.0;;;12.5;91.4
54314;BME280;50746;52.490;13.320;2023-02-18T02:18:14;100980.0;;;12.4;91.1
54314;BME280;50746;52.490;13.320;2023-02-18T02:19:07;101000.0;;;12.3;92.2
54314;BME280;50746;52.490;13.320;2023-02-18T02:20:15;101010.0;;;12.2;92.7
54314;BME280;50746;52.490;13.320;2023-02-18T02:21:15;101000.0;;;12.1;94.3
54314;BME280;50746;52.490;13.320;2023-02-18T02:22:09;101010.0;;;12.0;94.7
54314;BME280;50746;52.490;13.320;2023-02-18T02:24:11;101000.0;;;12.5;92.8
54314;BME280;50746;52.490;13.320;2023-02-18T02:25:14;101000.0;;;12.6;90.9
54314;BME280;50746;52.490;13.320;2023-02-18T02:27:08;101000.0;;;12.5;92.1
54314;BME280;50746;52.490;13.320;2023-02-18T02:28:18;101010.0;;;12.4;90.1
54314;BME280;50746;52.490;13.320;2023-02-18T02:29:04;101010.0;;;12.2;92.5
54314;BME280;50746;52.490;13.320;2023-02-18T02:30:17;101010.0;;;12.0;94.0
54314;BME280;50746;52.490;13.320;2023-02-18T02:32:04;101010.0;;;12.4;93.3
54314;BME280;50746;52.490;13.320;2023-02-18T02:33:09;101000.0;;;12.6;90.9
54314;BME280;50746;52.490;13.320;2023-02-18T02:35:01;101000.0;;;12.5;90.1
54314;BME280;50746;52.490;13.320;2023-02-18T02:36:02;101000.0;;;12.4;91.5
54314;BME280;50746;52.490;13.320;2023-02-18T02:37:01;101010.0;;;12.3;91.2
54314;BME280;50746;52.490;13.320;2023-02-18T02:39:02;101000.0;;;12.0;94.5
54314;BME280;50746;52.490;13.320;2023-02-18T02:40:06;100990.0;;;12.3;91.8
54314;BME280;50746;52.490;13.320;2023-02-18T02:41:07;101000.0;;;12.4;92.3
54314;BME280;50746;52.490;13.320;2023-02-18T02:42:03;101010.0;;;12.2;91.8
54314;BME280;50746;52.490;13.320;2023-02-18T02:43:04;101010.0;;;11.8;94.8
54314;BME280;50746;52.490;13.320;2023-02-18T02:44:07;101010.0;;;12.1;94.0
54314;BME280;50746;52.490;13.320;2023-02-18T02:45:03;101000.0;;;12.5;91.0
54314;BME280;50746;52.490;13.320;2023-02-18T02:46:02;101000.0;;;12.4;91.8
54314;BME280;50746;52.490;13.320;2023-02-18T02:47:01;100990.0;;;12.1;92.6
54314;BME280;50746;52.490;13.320;2023-02-18T02:48:03;100990.0;;;12.0;93.2
54314;BME280;50746;52.490;13.320;2023-02-18T02:50:01;101000.0;;;12.4;91.0
54314;BME280;50746;52.490;13.320;2023-02-18T02:51:04;101000.0;;;12.5;90.1
54314;BME280;50746;52.490;13.320;2023-02-18T02:52:02;101010.0;;;12.4;90.1
54314;BME280;50746;52.490;13.320;2023-02-18T02:53:01;101010.0;;;12.7;88.4
54314;BME280;50746;52.490;13.320;2023-02-18T02:54:09;101000.0;;;12.3;89.2
54314;BME280;50746;52.490;13.320;2023-02-18T02:54:59;101000.0;;;12.0;93.0
54314;BME280;50746;52.490;13.320;2023-02-18T02:55:59;100990.0;;;12.1;92.1
54314;BME280;50746;52.490;13.320;2023-02-18T02:57:04;100990.0;;;12.6;89.5
54314;BME280;50746;52.490;13.320;2023-02-18T02:57:59;100990.0;;;12.1;90.7
54314;BME280;50746;52.490;13.320;2023-02-18T02:59:01;100990.0;;;12.2;91.1
54314;BME280;50746;52.490;13.320;2023-02-18T03:00:02;100990.0;;;12.6;88.8
54314;BME280;50746;52.490;13.320;2023-02-18T03:01:08;101000.0;;;12.2;90.0
54314;BME280;50746;52.490;13.320;2023-02-18T03:02:05;101000.0;;;12.6;88.4
54314;BME280;50746;52.490;13.320;2023-02-18T03:03:14;100990.0;;;11.8;92.4
54314;BME280;50746;52.490;13.320;2023-02-18T03:04:15;101000.0;;;12.5;89.4
54314;BME280;50746;52.490;13.320;2023-02-18T03:05:07;101000.0;;;12.2;89.4
54314;BME280;50746;52.490;13.320;2023-02-18T03:06:07;101010.0;;;12.5;87.7
54314;BME280;50746;52.490;13.320;2023-02-18T03:08:06;101000.0;;;12.3;89.0
54314;BME280;50746;52.490;13.320;2023-02-18T03:09:03;101000.0;;;12.4;89.3
54314;BME280;50746;52.490;13.320;2023-02-18T03:10:09;101000.0;;;12.6;86.3
54314;BME280;50746;52.490;13.320;2023-02-18T03:11:02;100990.0;;;12.1;89.7
54314;BME280;50746;52.490;13.320;2023-02-18T03:12:06;101000.0;;;12.3;88.7
54314;BME280;50746;52.490;13.320;2023-02-18T03:13:04;101000.0;;;12.5;87.9
54314;BME280;50746;52.490;13.320;2023-02-18T03:14:06;101000.0;;;12.2;88.4
54314;BME280;50746;52.490;13.320;2023-02-18T03:15:03;101000.0;;;12.4;87.6
54314;BME280;50746;52.490;13.320;2023-02-18T03:16:05;101000.0;;;12.3;87.8
54314;BME280;50746;52.490;13.320;2023-02-18T03:17:02;101000.0;;;12.4;87.0
54314;BME280;50746;52.490;13.320;2023-02-18T03:18:02;101000.0;;;12.5;85.4
54314;BME280;50746;52.490;13.320;2023-02-18T03:19:04;101000.0;;;12.4;84.9
54314;BME280;50746;52.490;13.320;2023-02-18T03:20:03;101000.0;;;12.3;87.5
54314;BME280;50746;52.490;13.320;2023-02-18T03:22:00;101000.0;;;12.4;88.2
54314;BME280;50746;52.490;13.320;2023-02-18T03:24:01;101010.0;;;12.1;88.4
54314;BME280;50746;52.490;13.320;2023-02-18T03:25:59;101010.0;;;12.0;88.9
54314;BME280;50746;52.490;13.320;2023-02-18T03:27:04;101010.0;;;12.1;89.8
54314;BME280;50746;52.490;13.320;2023-02-18T03:28:01;101000.0;;;12.0;89.2
54314;BME280;50746;52.490;13.320;2023-02-18T03:29:02;101010.0;;;12.3;87.5
54314;BME280;50746;52.490;13.320;2023-02-18T03:30:02;101010.0;;;12.4;85.3
54314;BME280;50746;52.490;13.320;2023-02-18T03:31:01;101010.0;;;12.5;83.5
54314;BME280;50746;52.490;13.320;2023-02-18T03:32:02;101000.0;;;12.7;81.8
54314;BME280;50746;52.490;13.320;2023-02-18T03:33:02;101000.0;;;12.6;82.5
54314;BME280;50746;52.490;13.320;2023-02-18T03:34:01;101000.0;;;12.7;82.4
54314;BME280;50746;52.490;13.320;2023-02-18T03:35:59;100990.0;;;12.6;82.2
54314;BME280;50746;52.490;13.320;2023-02-18T03:37:00;101000.0;;;12.8;80.6
54314;BME280;50746;52.490;13.320;2023-02-18T03:38:01;101000.0;;;12.6;79.0
54314;BME280;50746;52.490;13.320;2023-02-18T03:39:02;101020.0;;;12.4;81.8
54314;BME280;50746;52.490;13.320;2023-02-18T03:40:00;101000.0;;;12.8;80.7
54314;BME280;50746;52.490;13.320;2023-02-18T03:40:59;101010.0;;;12.7;78.3
54314;BME280;50746;52.490;13.320;2023-02-18T03:41:59;101000.0;;;12.3;81.6
54314;BME280;50746;52.490;13.320;2023-02-18T03:42:59;101000.0;;;12.9;79.7
54314;BME280;50746;52.490;13.320;2023-02-18T03:44:01;100990.0;;;13.1;76.5
54314;BME280;50746;52.490;13.320;2023-02-18T03:44:59;101000.0;;;12.5;79.4
54314;BME280;50746;52.490;13.320;2023-02-18T03:45:59;101000.0;;;12.4;81.6
54314;BME280;50746;52.490;13.320;2023-02-18T03:46:59;100990.0;;;12.5;80.0
54314;BME280;50746;52.490;13.320;2023-02-18T03:47:59;101000.0;;;12.4;80.8
54314;BME280;50746;52.490;13.320;2023-02-18T03:48:59;101000.0;;;12.6;79.5
54314;BME280;50746;52.490;13.320;2023-02-18T03:49:59;101000.0;;;12.7;79.5
54314;BME280;50746;52.490;13.320;2023-02-18T03:51:59;101000.0;;;12.9;77.3
54314;BME280;50746;52.490;13.320;2023-02-18T03:52:59;101000.0;;;12.7;78.0
54314;BME280;50746;52.490;13.320;2023-02-18T03:53:59;101000.0;;;12.8;77.5
54314;BME280;50746;52.490;13.320;2023-02-18T03:54:59;101000.0;;;12.4;79.1
54314;BME280;50746;52.490;13.320;2023-02-18T03:55:59;101000.0;;;12.1;81.7
54314;BME280;50746;52.490;13.320;2023-02-18T03:56:59;100990.0;;;12.5;81.7
54314;BME280;50746;52.490;13.320;2023-02-18T03:57:59;100980.0;;;12.6;79.2
54314;BME280;50746;52.490;13.320;2023-02-18T03:58:59;101000.0;;;12.4;79.5
54314;BME280;50746;52.490;13.320;2023-02-18T03:59:59;101000.0;;;12.9;78.3
54314;BME280;50746;52.490;13.320;2023-02-18T04:00:59;100990.0;;;13.0;75.8
54314;BME280;50746;52.490;13.320;2023-02-18T04:03:59;101000.0;;;12.5;78.6
54314;BME280;50746;52.490;13.320;2023-02-18T04:04:59;101000.0;;;12.7;78.0
54314;BME280;50746;52.490;13.320;2023-02-18T04:05:59;101000.0;;;12.3;78.9
54314;BME280;50746;52.490;13.320;2023-02-18T04:06:59;101020.0;;;12.6;77.7
54314;BME280;50746;52.490;13.320;2023-02-18T04:07:59;100990.0;;;12.4;79.8
54314;BME280;50746;52.490;13.320;2023-02-18T04:10:59;101000.0;;;12.2;79.4
54314;BME280;50746;52.490;13.320;2023-02-18T04:11:59;100990.0;;;12.0;82.7
54314;BME280;50746;52.490;13.320;2023-02-18T04:12:59;100990.0;;;12.3;81.6
54314;BME280;50746;52.490;13.320;2023-02-18T04:14:59;100990.0;;;12.4;80.0
54314;BME280;50746;52.490;13.320;2023-02-18T04:15:59;100990.0;;;12.3;79.5
54314;BME280;50746;52.490;13.320;2023-02-18T04:16:59;101020.0;;;12.5;78.3
54314;BME280;50746;52.490;13.320;2023-02-18T04:17:59;101000.0;;;12.3;79.2
54314;BME280;50746;52.490;13.320;2023-02-18T04:19:59;100990.0;;;12.5;78.7
54314;BME280;50746;52.490;13.320;2023-02-18T04:20:59;101000.0;;;12.0;80.4
54314;BME280;50746;52.490;13.320;2023-02-18T04:21:59;101000.0;;;11.9;82.8
54314;BME280;50746;52.490;13.320;2023-02-18T04:22:59;101000.0;;;12.1;83.9
54314;BME280;50746;52.490;13.320;2023-02-18T04:23:59;101000.0;;;12.2;81.3
54314;BME280;50746;52.490;13.320;2023-02-18T04:25:59;101000.0;;;12.5;78.6
54314;BME280;50746;52.490;13.320;2023-02-18T04:26:59;100990.0;;;12.7;78.1
54314;BME280;50746;52.490;13.320;2023-02-18T04:27:59;101000.0;;;13.0;75.5
54314;BME280;50746;52.490;13.320;2023-02-18T04:29:59;101000.0;;;12.1;80.4
54314;BME280;50746;52.490;13.320;2023-02-18T04:31:59;101010.0;;;12.4;80.3
54314;BME280;50746;52.490;13.320;2023-02-18T04:32:59;101000.0;;;12.2;81.5
54314;BME280;50746;52.490;13.320;2023-02-18T04:33:59;101000.0;;;12.1;82.3
54314;BME280;50746;52.490;13.320;2023-02-18T04:35:59;101010.0;;;12.2;81.0
54314;BME280;50746;52.490;13.320;2023-02-18T04:36:59;101010.0;;;12.1;81.6
54314;BME280;50746;52.490;13.320;2023-02-18T04:37:59;101010.0;;;12.3;81.5
54314;BME280;50746;52.490;13.320;2023-02-18T04:38:59;101010.0;;;12.1;81.6
54314;BME280;50746;52.490;13.320;2023-02-18T04:39:59;101020.0;;;12.3;80.8
54314;BME280;50746;52.490;13.320;2023-02-18T04:40:59;101020.0;;;12.1;81.5
54314;BME280;50746;52.490;13.320;2023-02-18T04:41:59;101010.0;;;12.4;81.1
54314;BME280;50746;52.490;13.320;2023-02-18T04:42:59;101010.0;;;12.7;78.7
54314;BME280;50746;52.490;13.320;2023-02-18T04:43:59;101010.0;;;12.4;80.3
54314;BME280;50746;52.490;13.320;2023-02-18T04:44:59;101010.0;;;12.3;79.7
54314;BME280;50746;52.490;13.320;2023-02-18T04:45:59;101020.0;;;12.6;78.4
54314;BME280;50746;52.490;13.320;2023-02-18T04:46:59;101000.0;;;12.3;80.3
54314;BME280;50746;52.490;13.320;2023-02-18T04:47:59;101010.0;;;12.6;78.5
54314;BME280;50746;52.490;13.320;2023-02-18T04:48:59;101010.0;;;12.5;79.1
54314;BME280;50746;52.490;13.320;2023-02-18T04:49:59;101010.0;;;12.4;78.5
54314;BME280;50746;52.490;13.320;2023-02-18T04:50:59;101010.0;;;12.6;77.7
54314;BME280;50746;52.490;13.320;2023-02-18T04:52:59;101020.0;;;12.4;78.3
54314;BME280;50746;52.490;13.320;2023-02-18T04:54:59;101020.0;;;12.7;77.3
54314;BME280;50746;52.490;13.320;2023-02-18T04:55:59;101020.0;;;12.4;78.4
54314;BME280;50746;52.490;13.320;2023-02-18T04:56:59;101020.0;;;12.3;80.4
54314;BME280;50746;52.490;13.320;2023-02-18T04:57:59;101020.0;;;12.1;81.3
54314;BME280;50746;52.490;13.320;2023-02-18T04:58:59;101020.0;;;12.2;81.2
54314;BME280;50746;52.490;13.320;2023-02-18T04:59:59;101010.0;;;12.7;77.9
54314;BME280;50746;52.490;13.320;2023-02-18T05:00:59;101020.0;;;12.9;76.1
54314;BME280;50746;52.490;13.320;2023-02-18T05:01:59;101010.0;;;12.7;76.0
54314;BME280;50746;52.490;13.320;2023-02-18T05:02:59;101010.0;;;12.6;76.1
54314;BME280;50746;52.490;13.320;2023-02-18T05:03:59;101010.0;;;13.0;75.1
54314;BME280;50746;52.490;13.320;2023-02-18T05:05:59;101020.0;;;12.6;77.2
54314;BME280;50746;52.490;13.320;2023-02-18T05:06:59;101020.0;;;12.4;76.8
54314;BME280;50746;52.490;13.320;2023-02-18T05:07:59;101010.0;;;12.2;78.7
54314;BME280;50746;52.490;13.320;2023-02-18T05:08:59;101010.0;;;12.4;78.4
54314;BME280;50746;52.490;13.320;2023-02-18T05:09:59;101010.0;;;13.0;75.2
54314;BME280;50746;52.490;13.320;2023-02-18T05:10:59;101020.0;;;12.4;78.8
54314;BME280;50746;52.490;13.320;2023-02-18T05:11:59;101010.0;;;12.5;78.4
54314;BME280;50746;52.490;13.320;2023-02-18T05:12:59;101010.0;;;12.7;76.3
54314;BME280;50746;52.490;13.320;2023-02-18T05:14:59;101010.0;;;12.8;75.2
54314;BME280;50746;52.490;13.320;2023-02-18T05:15:59;101010.0;;;13.2;72.8
54314;BME280;50746;52.490;13.320;2023-02-18T05:17:59;101010.0;;;12.9;73.2
54314;BME280;50746;52.490;13.320;2023-02-18T05:19:59;101010.0;;;12.7;74.8
54314;BME280;50746;52.490;13.320;2023-02-18T05:20:59;101010.0;;;12.8;74.7
54314;BME280;50746;52.490;13.320;2023-02-18T05:22:59;101000.0;;;13.2;73.1
54314;BME280;50746;52.490;13.320;2023-02-18T05:24:59;101010.0;;;12.8;73.6
54314;BME280;50746;52.490;13.320;2023-02-18T05:25:59;101010.0;;;12.4;76.2
54314;BME280;50746;52.490;13.320;2023-02-18T05:26:59;101010.0;;;12.9;75.1
54314;BME280;50746;52.490;13.320;2023-02-18T05:28:59;101000.0;;;12.8;74.3
54314;BME280;50746;52.490;13.320;2023-02-18T05:30:59;101000.0;;;12.7;73.8
54314;BME280;50746;52.490;13.320;2023-02-18T05:32:59;101000.0;;;12.5;75.8
54314;BME280;50746;52.490;13.320;2023-02-18T05:33:59;101000.0;;;12.7;75.8
54314;BME280;50746;52.490;13.320;2023-02-18T05:35:59;101000.0;;;13.1;73.2
54314;BME280;50746;52.490;13.320;2023-02-18T05:36:59;101000.0;;;13.3;71.8
54314;BME280;50746;52.490;13.320;2023-02-18T05:37:59;101000.0;;;13.0;71.6
54314;BME280;50746;52.490;13.320;2023-02-18T05:38:59;101000.0;;;12.9;71.8
54314;BME280;50746;52.490;13.320;2023-02-18T05:39:59;100990.0;;;13.1;71.8
54314;BME280;50746;52.490;13.320;2023-02-18T05:40:59;101000.0;;;12.9;72.3
54314;BME280;50746;52.490;13.320;2023-02-18T05:41:59;100990.0;;;13.0;72.3
54314;BME280;50746;52.490;13.320;2023-02-18T05:42:59;101000.0;;;13.2;71.1
54314;BME280;50746;52.490;13.320;2023-02-18T05:43:59;100990.0;;;13.0;70.8
54314;BME280;50746;52.490;13.320;2023-02-18T05:44:59;100990.0;;;13.4;69.7
54314;BME280;50746;52.490;13.320;2023-02-18T05:45:59;100990.0;;;13.0;70.6
54314;BME280;50746;52.490;13.320;2023-02-18T05:47:00;100980.0;;;13.4;69.2
54314;BME280;50746;52.490;13.320;2023-02-18T05:47:59;100980.0;;;13.3;68.4
54314;BME280;50746;52.490;13.320;2023-02-18T05:48:59;100980.0;;;13.4;68.7
54314;BME280;50746;52.490;13.320;2023-02-18T05:49:59;100990.0;;;13.3;68.8
54314;BME280;50746;52.490;13.320;2023-02-18T05:51:59;100990.0;;;13.6;68.4
54314;BME280;50746;52.490;13.320;2023-02-18T05:52:59;100990.0;;;12.9;70.9
54314;BME280;50746;52.490;13.320;2023-02-18T05:53:59;100980.0;;;13.1;70.9
54314;BME280;50746;52.490;13.320;2023-02-18T05:54:59;100980.0;;;13.6;68.9
54314;BME280;50746;52.490;13.320;2023-02-18T05:55:59;100990.0;;;13.5;67.7
54314;BME280;50746;52.490;13.320;2023-02-18T05:56:59;100990.0;;;13.1;68.7
54314;BME280;50746;52.490;13.320;2023-02-18T05:57:59;100990.0;;;12.6;70.7
54314;BME280;50746;52.490;13.320;2023-02-18T05:58:59;101000.0;;;12.8;70.9
54314;BME280;50746;52.490;13.320;2023-02-18T05:59:59;100990.0;;;12.7;72.0
54314;BME280;50746;52.490;13.320;2023-02-18T06:00:59;100990.0;;;12.9;71.1
54314;BME280;50746;52.490;13.320;2023-02-18T06:01:59;100990.0;;;13.1;69.5
54314;BME280;50746;52.490;13.320;2023-02-18T06:03:59;100990.0;;;13.5;68.1
54314;BME280;50746;52.490;13.320;2023-02-18T06:04:59;100980.0;;;13.2;68.2
54314;BME280;50746;52.490;13.320;2023-02-18T06:06:59;100990.0;;;13.1;68.7
54314;BME280;50746;52.490;13.320;2023-02-18T06:07:59;100990.0;;;13.3;68.5
54314;BME280;50746;52.490;13.320;2023-02-18T06:08:59;101000.0;;;13.1;68.5
54314;BME280;50746;52.490;13.320;2023-02-18T06:09:59;100990.0;;;13.0;69.2
54314;BME280;50746;52.490;13.320;2023-02-18T06:10:59;100980.0;;;13.1;69.0
54314;BME280;50746;52.490;13.320;2023-02-18T06:11:59;100990.0;;;13.3;69.1
54314;BME280;50746;52.490;13.320;2023-02-18T06:12:59;101000.0;;;13.5;67.3
54314;BME280;50746;52.490;13.320;2023-02-18T06:13:59;100990.0;;;13.6;66.6
54314;BME280;50746;52.490;13.320;2023-02-18T06:14:59;100990.0;;;13.3;67.0
54314;BME280;50746;52.490;13.320;2023-02-18T06:15:59;101000.0;;;13.4;67.1
54314;BME280;50746;52.490;13.320;2023-02-18T06:16:59;100990.0;;;13.3;67.6
54314;BME280;50746;52.490;13.320;2023-02-18T06:17:59;100990.0;;;13.5;67.2
54314;BME280;50746;52.490;13.320;2023-02-18T06:19:59;100980.0;;;13.4;67.6
54314;BME280;50746;52.490;13.320;2023-02-18T06:21:59;100990.0;;;13.8;65.7
54314;BME280;50746;52.490;13.320;2023-02-18T06:22:59;100990.0;;;13.6;66.0
54314;BME280;50746;52.490;13.320;2023-02-18T06:25:59;100980.0;;;13.8;65.8